sensor_id;sensor_type;location;lat;lon;timestamp;pressure;altitude;pressure_sealevel;temperature;humidity
75627;BME280;67372;49.404;11.034;2023-02-26T00:01:53;97575.34;;;-0.87;75.79
75627;BME280;67372;49.404;11.034;2023-02-26T00:04:19;97571.44;;;-0.91;76.02
75627;BME280;67372;49.404;11.034;2023-02-26T00:06:46;97574.81;;;-0.99;76.09
75627;BME280;67372;49.404;11.034;2023-02-26T00:09:12;97581.34;;;-1.03;76.51
75627;BME280;67372;49.404;11.034;2023-02-26T00:11:38;97578.59;;;-1.01;76.10
75627;BME280;67372;49.404;11.034;2023-02-26T00:14:09;97580.38;;;-1.10;76.52
75627;BME280;67372;49.404;11.034;2023-02-26T00:16:38;97589.50;;;-1.14;76.52
75627;BME280;67372;49.404;11.034;2023-02-26T00:19:07;97584.88;;;-1.20;76.45
75627;BME280;67372;49.404;11.034;2023-02-26T00:21:34;97588.31;;;-1.19;76.33
75627;BME280;67372;49.404;11.034;2023-02-26T00:24:01;97589.47;;;-1.22;76.40
75627;BME280;67372;49.404;11.034;2023-02-26T00:26:29;97584.06;;;-1.20;75.21
75627;BME280;67372;49.404;11.034;2023-02-26T00:28:57;97591.91;;;-1.20;75.79
75627;BME280;67372;49.404;11.034;2023-02-26T00:31:23;97596.81;;;-1.26;75.69
75627;BME280;67372;49.404;11.034;2023-02-26T00:33:55;97599.75;;;-1.29;76.03
75627;BME280;67372;49.404;11.034;2023-02-26T00:41:41;97604.31;;;-1.31;76.45
75627;BME280;67372;49.404;11.034;2023-02-26T00:44:08;97593.84;;;-1.31;76.47
75627;BME280;67372;49.404;11.034;2023-02-26T00:46:38;97599.41;;;-1.26;75.95
75627;BME280;67372;49.404;11.034;2023-02-26T00:49:17;97603.50;;;-1.31;76.73
75627;BME280;67372;49.404;11.034;2023-02-26T00:51:50;97605.59;;;-1.35;77.41
75627;BME280;67372;49.404;11.034;2023-02-26T00:54:20;97607.72;;;-1.38;77.15
75627;BME280;67372;49.404;11.034;2023-02-26T00:56:48;97604.94;;;-1.37;77.32
75627;BME280;67372;49.404;11.034;2023-02-26T00:59:16;97603.31;;;-1.38;77.06
75627;BME280;67372;49.404;11.034;2023-02-26T01:01:43;97608.38;;;-1.36;76.58
75627;BME280;67372;49.404;11.034;2023-02-26T01:04:11;97597.91;;;-1.36;76.84
75627;BME280;67372;49.404;11.034;2023-02-26T01:06:44;97604.28;;;-1.39;76.58
75627;BME280;67372;49.404;11.034;2023-02-26T01:09:17;97600.84;;;-1.39;76.30
75627;BME280;67372;49.404;11.034;2023-02-26T01:11:46;97605.84;;;-1.46;77.17
75627;BME280;67372;49.404;11.034;2023-02-26T01:14:13;97591.78;;;-1.53;77.92
75627;BME280;67372;49.404;11.034;2023-02-26T01:16:49;97598.28;;;-1.57;77.43
75627;BME280;67372;49.404;11.034;2023-02-26T01:19:25;97597.28;;;-1.64;76.99
75627;BME280;67372;49.404;11.034;2023-02-26T01:22:05;97600.13;;;-1.75;76.77
75627;BME280;67372;49.404;11.034;2023-02-26T01:24:34;97610.09;;;-1.79;77.54
75627;BME280;67372;49.404;11.034;2023-02-26T01:27:02;97604.03;;;-1.79;76.79
75627;BME280;67372;49.404;11.034;2023-02-26T01:29:28;97607.63;;;-1.80;77.07
75627;BME280;67372;49.404;11.034;2023-02-26T01:32:00;97610.53;;;-1.83;76.48
75627;BME280;67372;49.404;11.034;2023-02-26T01:37:03;97604.97;;;-1.89;76.15
75627;BME280;67372;49.404;11.034;2023-02-26T01:39:44;97607.72;;;-1.90;76.03
75627;BME280;67372;49.404;11.034;2023-02-26T01:42:19;97609.50;;;-1.91;75.59
75627;BME280;67372;49.404;11.034;2023-02-26T01:44:55;97606.69;;;-1.97;75.20
75627;BME280;67372;49.404;11.034;2023-02-26T01:47:48;97609.13;;;-1.96;75.24
75627;BME280;67372;49.404;11.034;2023-02-26T01:50:20;97611.41;;;-2.01;75.11
75627;BME280;67372;49.404;11.034;2023-02-26T01:55:18;97618.94;;;-1.98;74.97
75627;BME280;67372;49.404;11.034;2023-02-26T01:57:46;97617.13;;;-1.97;75.43
75627;BME280;67372;49.404;11.034;2023-02-26T02:00:14;97618.56;;;-2.03;75.39
75627;BME280;67372;49.404;11.034;2023-02-26T02:02:41;97621.34;;;-2.04;75.59
75627;BME280;67372;49.404;11.034;2023-02-26T02:05:14;97617.09;;;-2.05;75.76
75627;BME280;67372;49.404;11.034;2023-02-26T02:07:42;97627.03;;;-2.09;75.46
75627;BME280;67372;49.404;11.034;2023-02-26T02:10:08;97622.78;;;-2.10;75.53
75627;BME280;67372;49.404;11.034;2023-02-26T02:13:16;97617.69;;;-2.11;75.84
75627;BME280;67372;49.404;11.034;2023-02-26T02:18:42;97623.50;;;-2.18;75.86
75627;BME280;67372;49.404;11.034;2023-02-26T02:21:47;97621.84;;;-2.19;76.02
75627;BME280;67372;49.404;11.034;2023-02-26T02:30:06;97636.81;;;-2.29;76.13
75627;BME280;67372;49.404;11.034;2023-02-26T02:32:43;97638.06;;;-2.33;76.53
75627;BME280;67372;49.404;11.034;2023-02-26T02:35:29;97639.31;;;-2.37;76.09
75627;BME280;67372;49.404;11.034;2023-02-26T02:38:13;97641.13;;;-2.37;76.07
75627;BME280;67372;49.404;11.034;2023-02-26T02:40:46;97653.06;;;-2.35;76.17
75627;BME280;67372;49.404;11.034;2023-02-26T02:43:19;97649.25;;;-2.40;76.29
75627;BME280;67372;49.404;11.034;2023-02-26T02:45:52;97645.00;;;-2.41;76.60
75627;BME280;67372;49.404;11.034;2023-02-26T02:48:31;97645.00;;;-2.41;76.79
75627;BME280;67372;49.404;11.034;2023-02-26T02:51:01;97654.31;;;-2.39;76.60
75627;BME280;67372;49.404;11.034;2023-02-26T02:53:42;97653.94;;;-2.44;76.60
75627;BME280;67372;49.404;11.034;2023-02-26T02:56:15;97656.41;;;-2.42;76.43
75627;BME280;67372;49.404;11.034;2023-02-26T02:58:48;97651.34;;;-2.44;76.53
75627;BME280;67372;49.404;11.034;2023-02-26T03:01:18;97661.06;;;-2.36;76.15
75627;BME280;67372;49.404;11.034;2023-02-26T03:04:02;97652.94;;;-2.33;76.07
75627;BME280;67372;49.404;11.034;2023-02-26T03:06:31;97663.22;;;-2.32;75.88
75627;BME280;67372;49.404;11.034;2023-02-26T03:08:59;97663.75;;;-2.28;76.36
75627;BME280;67372;49.404;11.034;2023-02-26T03:11:26;97661.66;;;-2.25;76.08
75627;BME280;67372;49.404;11.034;2023-02-26T03:13:53;97657.47;;;-2.18;75.92
75627;BME280;67372;49.404;11.034;2023-02-26T03:22:41;97675.28;;;-2.13;75.59
75627;BME280;67372;49.404;11.034;2023-02-26T03:25:33;97689.19;;;-2.12;75.01
75627;BME280;67372;49.404;11.034;2023-02-26T03:28:13;97690.53;;;-2.26;75.58
75627;BME280;67372;49.404;11.034;2023-02-26T03:30:55;97683.16;;;-2.31;76.27
75627;BME280;67372;49.404;11.034;2023-02-26T03:33:34;97683.50;;;-2.43;76.23
75627;BME280;67372;49.404;11.034;2023-02-26T03:36:10;97690.66;;;-2.45;76.05
75627;BME280;67372;49.404;11.034;2023-02-26T03:41:32;97697.72;;;-2.56;76.56
75627;BME280;67372;49.404;11.034;2023-02-26T03:44:07;97696.91;;;-2.56;76.58
75627;BME280;67372;49.404;11.034;2023-02-26T03:46:38;97698.69;;;-2.57;76.71
75627;BME280;67372;49.404;11.034;2023-02-26T03:49:12;97703.78;;;-2.55;76.58
75627;BME280;67372;49.404;11.034;2023-02-26T03:51:40;97708.63;;;-2.60;76.82
75627;BME280;67372;49.404;11.034;2023-02-26T03:56:45;97715.38;;;-2.67;76.85
75627;BME280;67372;49.404;11.034;2023-02-26T03:59:13;97721.03;;;-2.72;77.30
75627;BME280;67372;49.404;11.034;2023-02-26T04:01:46;97716.94;;;-2.74;77.11
75627;BME280;67372;49.404;11.034;2023-02-26T04:04:26;97714.59;;;-2.78;77.02
75627;BME280;67372;49.404;11.034;2023-02-26T04:06:55;97725.19;;;-2.79;77.37
75627;BME280;67372;49.404;11.034;2023-02-26T04:09:22;97722.72;;;-2.81;77.24
75627;BME280;67372;49.404;11.034;2023-02-26T04:11:50;97722.88;;;-2.82;77.40
75627;BME280;67372;49.404;11.034;2023-02-26T04:14:18;97728.63;;;-2.79;77.73
75627;BME280;67372;49.404;11.034;2023-02-26T04:16:44;97735.88;;;-2.72;77.21
75627;BME280;67372;49.404;11.034;2023-02-26T04:19:11;97734.31;;;-2.65;76.85
75627;BME280;67372;49.404;11.034;2023-02-26T04:21:38;97736.88;;;-2.56;76.86
75627;BME280;67372;49.404;11.034;2023-02-26T04:24:04;97741.38;;;-2.48;76.37
75627;BME280;67372;49.404;11.034;2023-02-26T04:26:30;97743.41;;;-2.42;76.29
75627;BME280;67372;49.404;11.034;2023-02-26T04:28:57;97741.72;;;-2.33;76.00
75627;BME280;67372;49.404;11.034;2023-02-26T04:31:23;97747.16;;;-2.27;75.72
75627;BME280;67372;49.404;11.034;2023-02-26T04:33:50;97748.88;;;-2.18;75.30
75627;BME280;67372;49.404;11.034;2023-02-26T04:36:16;97752.00;;;-2.14;75.33
75627;BME280;67372;49.404;11.034;2023-02-26T04:38:42;97757.50;;;-2.07;75.15
75627;BME280;67372;49.404;11.034;2023-02-26T04:41:09;97754.59;;;-2.04;74.96
75627;BME280;67372;49.404;11.034;2023-02-26T04:43:35;97765.56;;;-2.01;74.22
75627;BME280;67372;49.404;11.034;2023-02-26T04:46:02;97770.78;;;-2.01;73.94
75627;BME280;67372;49.404;11.034;2023-02-26T04:48:29;97770.09;;;-2.03;74.57
75627;BME280;67372;49.404;11.034;2023-02-26T04:50:55;97774.00;;;-2.07;74.55
75627;BME280;67372;49.404;11.034;2023-02-26T04:53:21;97775.25;;;-2.11;74.82
75627;BME280;67372;49.404;11.034;2023-02-26T04:55:48;97777.44;;;-2.06;74.70
75627;BME280;67372;49.404;11.034;2023-02-26T04:58:17;97779.88;;;-2.05;74.74
75627;BME280;67372;49.404;11.034;2023-02-26T05:00:48;97780.09;;;-1.98;74.77
75627;BME280;67372;49.404;11.034;2023-02-26T05:03:14;97788.41;;;-1.85;74.90
75627;BME280;67372;49.404;11.034;2023-02-26T05:05:41;97779.97;;;-1.79;74.02
75627;BME280;67372;49.404;11.034;2023-02-26T05:08:07;97800.44;;;-1.74;73.61
75627;BME280;67372;49.404;11.034;2023-02-26T05:10:34;97792.53;;;-1.82;73.84
75627;BME280;67372;49.404;11.034;2023-02-26T05:13:00;97788.78;;;-1.80;73.64
75627;BME280;67372;49.404;11.034;2023-02-26T05:15:27;97792.72;;;-1.94;74.43
75627;BME280;67372;49.404;11.034;2023-02-26T05:17:53;97798.78;;;-1.93;73.82
75627;BME280;67372;49.404;11.034;2023-02-26T05:20:20;97798.63;;;-1.92;74.35
75627;BME280;67372;49.404;11.034;2023-02-26T05:22:46;97802.50;;;-1.96;74.36
75627;BME280;67372;49.404;11.034;2023-02-26T05:25:13;97801.53;;;-1.95;74.25
75627;BME280;67372;49.404;11.034;2023-02-26T05:27:40;97804.00;;;-1.93;74.67
75627;BME280;67372;49.404;11.034;2023-02-26T05:30:09;97801.09;;;-1.90;74.63
75627;BME280;67372;49.404;11.034;2023-02-26T05:32:36;97800.81;;;-1.87;74.17
75627;BME280;67372;49.404;11.034;2023-02-26T05:35:03;97800.81;;;-1.87;74.58
75627;BME280;67372;49.404;11.034;2023-02-26T05:37:29;97809.75;;;-1.90;74.34
75627;BME280;67372;49.404;11.034;2023-02-26T05:39:55;97809.22;;;-1.93;74.80
75627;BME280;67372;49.404;11.034;2023-02-26T05:42:22;97813.41;;;-2.00;75.23
75627;BME280;67372;49.404;11.034;2023-02-26T05:44:48;97809.81;;;-1.99;75.54
75627;BME280;67372;49.404;11.034;2023-02-26T05:47:15;97818.34;;;-1.97;75.48
75627;BME280;67372;49.404;11.034;2023-02-26T05:49:42;97821.41;;;-2.02;75.29
75627;BME280;67372;49.404;11.034;2023-02-26T05:52:08;97814.66;;;-2.04;75.67
75627;BME280;67372;49.404;11.034;2023-02-26T05:54:34;97818.94;;;-2.03;76.05
75627;BME280;67372;49.404;11.034;2023-02-26T05:57:01;97824.16;;;-2.03;75.90
75627;BME280;67372;49.404;11.034;2023-02-26T05:59:27;97826.03;;;-1.96;75.75
75627;BME280;67372;49.404;11.034;2023-02-26T06:01:53;97827.22;;;-1.90;76.31
75627;BME280;67372;49.404;11.034;2023-02-26T06:04:20;97829.00;;;-1.91;75.89
75627;BME280;67372;49.404;11.034;2023-02-26T06:06:46;97836.59;;;-1.88;75.51
75627;BME280;67372;49.404;11.034;2023-02-26T06:09:12;97834.94;;;-1.89;76.01
75627;BME280;67372;49.404;11.034;2023-02-26T06:11:39;97850.31;;;-1.86;76.25
75627;BME280;67372;49.404;11.034;2023-02-26T06:14:05;97843.59;;;-1.88;76.05
75627;BME280;67372;49.404;11.034;2023-02-26T06:16:32;97848.28;;;-1.92;76.54
75627;BME280;67372;49.404;11.034;2023-02-26T06:18:58;97848.84;;;-1.88;76.59
75627;BME280;67372;49.404;11.034;2023-02-26T06:21:25;97850.47;;;-1.87;77.84
75627;BME280;67372;49.404;11.034;2023-02-26T06:23:51;97859.56;;;-1.91;77.21
75627;BME280;67372;49.404;11.034;2023-02-26T06:26:17;97853.47;;;-1.82;76.74
75627;BME280;67372;49.404;11.034;2023-02-26T06:28:44;97863.78;;;-1.80;77.19
75627;BME280;67372;49.404;11.034;2023-02-26T06:31:10;97859.59;;;-1.73;78.04
75627;BME280;67372;49.404;11.034;2023-02-26T06:33:37;97865.63;;;-1.73;76.84
75627;BME280;67372;49.404;11.034;2023-02-26T06:36:03;97867.97;;;-1.70;76.82
75627;BME280;67372;49.404;11.034;2023-02-26T06:38:30;97869.59;;;-1.69;77.03
75627;BME280;67372;49.404;11.034;2023-02-26T06:40:56;97873.09;;;-1.78;77.42
75627;BME280;67372;49.404;11.034;2023-02-26T06:43:22;97872.22;;;-1.69;76.90
75627;BME280;67372;49.404;11.034;2023-02-26T06:45:49;97888.38;;;-1.56;76.55
75627;BME280;67372;49.404;11.034;2023-02-26T06:48:15;97891.44;;;-1.42;76.30
75627;BME280;67372;49.404;11.034;2023-02-26T06:50:41;97892.22;;;-1.32;75.96
75627;BME280;67372;49.404;11.034;2023-02-26T06:53:08;97889.19;;;-1.55;75.86
75627;BME280;67372;49.404;11.034;2023-02-26T06:55:34;97905.47;;;-1.43;76.73
75627;BME280;67372;49.404;11.034;2023-02-26T06:58:01;97905.13;;;-1.31;76.22
75627;BME280;67372;49.404;11.034;2023-02-26T07:00:27;97912.06;;;-1.21;75.40
75627;BME280;67372;49.404;11.034;2023-02-26T07:02:53;97918.81;;;-1.01;75.33
75627;BME280;67372;49.404;11.034;2023-02-26T07:05:20;97923.66;;;-0.88;74.52
75627;BME280;67372;49.404;11.034;2023-02-26T07:07:46;97928.75;;;-0.87;73.54
75627;BME280;67372;49.404;11.034;2023-02-26T07:10:13;97935.03;;;-0.80;73.43
75627;BME280;67372;49.404;11.034;2023-02-26T07:12:39;97942.41;;;-0.75;73.75
75627;BME280;67372;49.404;11.034;2023-02-26T07:15:06;97941.75;;;-0.77;73.59
75627;BME280;67372;49.404;11.034;2023-02-26T07:17:33;97941.69;;;-0.68;73.39
75627;BME280;67372;49.404;11.034;2023-02-26T07:19:59;97946.09;;;-0.68;73.13
75627;BME280;67372;49.404;11.034;2023-02-26T07:22:25;97945.84;;;-0.75;73.34
75627;BME280;67372;49.404;11.034;2023-02-26T07:24:52;97951.19;;;-0.67;73.05
75627;BME280;67372;49.404;11.034;2023-02-26T07:27:18;97946.59;;;-0.65;72.81
75627;BME280;67372;49.404;11.034;2023-02-26T07:29:44;97957.91;;;-0.64;73.10
75627;BME280;67372;49.404;11.034;2023-02-26T07:32:11;97962.84;;;-0.61;72.84
75627;BME280;67372;49.404;11.034;2023-02-26T07:34:37;97963.75;;;-0.70;73.00
75627;BME280;67372;49.404;11.034;2023-02-26T07:37:03;97969.00;;;-0.70;73.07
75627;BME280;67372;49.404;11.034;2023-02-26T07:39:30;97971.50;;;-0.60;75.12
75627;BME280;67372;49.404;11.034;2023-02-26T07:41:56;97975.69;;;-0.50;74.35
75627;BME280;67372;49.404;11.034;2023-02-26T07:44:22;97972.94;;;-0.22;73.19
75627;BME280;67372;49.404;11.034;2023-02-26T07:46:49;97975.00;;;-0.34;72.01
75627;BME280;67372;49.404;11.034;2023-02-26T07:49:15;97986.50;;;-0.27;72.55
75627;BME280;67372;49.404;11.034;2023-02-26T07:51:41;97982.53;;;-0.31;71.82
75627;BME280;67372;49.404;11.034;2023-02-26T07:54:08;97982.38;;;-0.29;71.55
75627;BME280;67372;49.404;11.034;2023-02-26T07:56:34;97989.38;;;-0.38;72.42
75627;BME280;67372;49.404;11.034;2023-02-26T07:59:00;97988.19;;;-0.44;72.89
75627;BME280;67372;49.404;11.034;2023-02-26T08:01:26;97995.53;;;-0.47;72.79
75627;BME280;67372;49.404;11.034;2023-02-26T08:03:53;97992.97;;;-0.39;73.30
75627;BME280;67372;49.404;11.034;2023-02-26T08:06:19;98000.88;;;-0.31;72.74
75627;BME280;67372;49.404;11.034;2023-02-26T08:08:45;98002.00;;;-0.34;73.08
75627;BME280;67372;49.404;11.034;2023-02-26T08:11:12;98007.75;;;-0.30;73.36
75627;BME280;67372;49.404;11.034;2023-02-26T08:13:38;98008.06;;;-0.33;73.86
75627;BME280;67372;49.404;11.034;2023-02-26T08:16:05;98012.63;;;-0.35;73.88
75627;BME280;67372;49.404;11.034;2023-02-26T08:18:31;98020.31;;;-0.16;73.81
75627;BME280;67372;49.404;11.034;2023-02-26T08:20:58;98021.84;;;-0.05;73.31
75627;BME280;67372;49.404;11.034;2023-02-26T08:23:24;98023.63;;;0.12;73.07
75627;BME280;67372;49.404;11.034;2023-02-26T08:25:50;98023.72;;;0.03;72.85
75627;BME280;67372;49.404;11.034;2023-02-26T08:28:24;98022.28;;;-0.18;74.05
75627;BME280;67372;49.404;11.034;2023-02-26T08:30:53;98029.00;;;-0.15;73.95
75627;BME280;67372;49.404;11.034;2023-02-26T08:33:20;98023.31;;;-0.11;74.73
75627;BME280;67372;49.404;11.034;2023-02-26T08:35:50;98028.66;;;-0.20;73.78
75627;BME280;67372;49.404;11.034;2023-02-26T08:38:17;98037.06;;;-0.09;73.63
75627;BME280;67372;49.404;11.034;2023-02-26T08:40:43;98040.66;;;-0.10;73.84
75627;BME280;67372;49.404;11.034;2023-02-26T08:43:10;98038.72;;;-0.08;73.80
75627;BME280;67372;49.404;11.034;2023-02-26T08:45:36;98042.97;;;-0.07;74.02
75627;BME280;67372;49.404;11.034;2023-02-26T08:48:03;98048.81;;;0.05;73.60
75627;BME280;67372;49.404;11.034;2023-02-26T08:50:29;98053.78;;;0.16;72.71
75627;BME280;67372;49.404;11.034;2023-02-26T08:52:56;98049.16;;;0.36;72.64
75627;BME280;67372;49.404;11.034;2023-02-26T08:55:22;98056.56;;;0.41;71.70
75627;BME280;67372;49.404;11.034;2023-02-26T08:57:48;98066.53;;;0.37;71.01
75627;BME280;67372;49.404;11.034;2023-02-26T09:00:15;98063.59;;;0.40;70.73
75627;BME280;67372;49.404;11.034;2023-02-26T09:02:42;98078.38;;;0.41;70.86
75627;BME280;67372;49.404;11.034;2023-02-26T09:05:08;98073.47;;;0.46;69.33
75627;BME280;67372;49.404;11.034;2023-02-26T09:07:34;98079.53;;;0.47;66.61
75627;BME280;67372;49.404;11.034;2023-02-26T09:10:01;98082.09;;;0.65;66.44
75627;BME280;67372;49.404;11.034;2023-02-26T09:12:27;98076.78;;;0.82;65.83
75627;BME280;67372;49.404;11.034;2023-02-26T09:14:54;98093.59;;;0.98;65.88
75627;BME280;67372;49.404;11.034;2023-02-26T09:17:20;98093.63;;;1.14;66.29
75627;BME280;67372;49.404;11.034;2023-02-26T09:19:46;98089.25;;;1.31;64.74
75627;BME280;67372;49.404;11.034;2023-02-26T09:22:13;98088.75;;;1.27;64.33
75627;BME280;67372;49.404;11.034;2023-02-26T09:24:39;98099.41;;;1.26;65.01
75627;BME280;67372;49.404;11.034;2023-02-26T09:27:05;98099.38;;;1.17;65.87
75627;BME280;67372;49.404;11.034;2023-02-26T09:29:32;98108.38;;;1.07;65.79
75627;BME280;67372;49.404;11.034;2023-02-26T09:31:58;98107.63;;;1.31;66.31
75627;BME280;67372;49.404;11.034;2023-02-26T09:34:25;98101.94;;;1.51;65.74
75627;BME280;67372;49.404;11.034;2023-02-26T09:36:51;98107.38;;;1.58;62.46
75627;BME280;67372;49.404;11.034;2023-02-26T09:39:17;98109.50;;;1.63;62.09
75627;BME280;67372;49.404;11.034;2023-02-26T09:41:49;98116.09;;;1.67;62.18
75627;BME280;67372;49.404;11.034;2023-02-26T09:44:29;98121.38;;;1.67;61.03
75627;BME280;67372;49.404;11.034;2023-02-26T09:46:59;98122.66;;;1.63;60.32
75627;BME280;67372;49.404;11.034;2023-02-26T09:52:22;98118.56;;;1.68;59.95
75627;BME280;67372;49.404;11.034;2023-02-26T09:54:53;98121.03;;;1.78;58.08
75627;BME280;67372;49.404;11.034;2023-02-26T09:57:33;98125.00;;;2.06;58.53
75627;BME280;67372;49.404;11.034;2023-02-26T10:00:03;98135.03;;;2.11;56.36
75627;BME280;67372;49.404;11.034;2023-02-26T10:02:37;98141.28;;;2.10;56.20
75627;BME280;67372;49.404;11.034;2023-02-26T10:05:37;98135.72;;;2.13;55.71
75627;BME280;67372;49.404;11.034;2023-02-26T10:08:15;98144.25;;;1.99;55.79
75627;BME280;67372;49.404;11.034;2023-02-26T10:10:49;98136.97;;;1.84;55.43
75627;BME280;67372;49.404;11.034;2023-02-26T10:16:31;98145.34;;;1.72;56.28
75627;BME280;67372;49.404;11.034;2023-02-26T10:19:06;98140.63;;;2.00;57.12
75627;BME280;67372;49.404;11.034;2023-02-26T10:21:41;98156.91;;;2.28;56.38
75627;BME280;67372;49.404;11.034;2023-02-26T10:24:14;98153.44;;;2.35;55.35
75627;BME280;67372;49.404;11.034;2023-02-26T10:26:50;98155.44;;;2.17;54.35
75627;BME280;67372;49.404;11.034;2023-02-26T10:29:27;98159.84;;;2.33;54.78
75627;BME280;67372;49.404;11.034;2023-02-26T10:34:55;98164.78;;;2.28;53.77
75627;BME280;67372;49.404;11.034;2023-02-26T10:37:42;98174.34;;;2.37;54.45
75627;BME280;67372;49.404;11.034;2023-02-26T10:40:46;98175.16;;;2.45;53.75
75627;BME280;67372;49.404;11.034;2023-02-26T10:43:45;98173.84;;;2.33;53.37
75627;BME280;67372;49.404;11.034;2023-02-26T10:46:25;98167.91;;;2.47;53.12
75627;BME280;67372;49.404;11.034;2023-02-26T10:49:34;98174.81;;;2.49;51.01
75627;BME280;67372;49.404;11.034;2023-02-26T10:52:12;98166.59;;;2.52;51.98
75627;BME280;67372;49.404;11.034;2023-02-26T10:54:49;98170.72;;;2.62;52.58
75627;BME280;67372;49.404;11.034;2023-02-26T10:57:26;98171.84;;;2.60;51.19
75627;BME280;67372;49.404;11.034;2023-02-26T10:59:54;98173.00;;;2.65;51.64
75627;BME280;67372;49.404;11.034;2023-02-26T11:02:33;98166.59;;;2.68;50.16
75627;BME280;67372;49.404;11.034;2023-02-26T11:05:03;98173.31;;;2.70;50.26
75627;BME280;67372;49.404;11.034;2023-02-26T11:07:36;98165.88;;;2.90;50.07
75627;BME280;67372;49.404;11.034;2023-02-26T11:10:03;98179.66;;;3.00;49.78
75627;BME280;67372;49.404;11.034;2023-02-26T11:12:30;98160.84;;;3.20;49.36
75627;BME280;67372;49.404;11.034;2023-02-26T11:14:57;98167.81;;;3.44;49.59
75627;BME280;67372;49.404;11.034;2023-02-26T11:17:28;98170.63;;;3.42;50.15
75627;BME280;67372;49.404;11.034;2023-02-26T11:19:58;98175.31;;;3.24;52.05
75627;BME280;67372;49.404;11.034;2023-02-26T11:22:27;98182.41;;;3.23;52.92
75627;BME280;67372;49.404;11.034;2023-02-26T11:24:55;98179.28;;;3.20;53.22
75627;BME280;67372;49.404;11.034;2023-02-26T11:27:42;98184.78;;;3.10;52.52
75627;BME280;67372;49.404;11.034;2023-02-26T11:30:30;98175.13;;;2.86;53.41
75627;BME280;67372;49.404;11.034;2023-02-26T11:33:05;98170.53;;;2.72;52.47
75627;BME280;67372;49.404;11.034;2023-02-26T11:35:32;98185.34;;;2.65;53.25
75627;BME280;67372;49.404;11.034;2023-02-26T11:38:00;98170.38;;;2.49;54.23
75627;BME280;67372;49.404;11.034;2023-02-26T11:40:36;98169.09;;;2.37;54.57
75627;BME280;67372;49.404;11.034;2023-02-26T11:43:11;98174.81;;;2.32;55.17
75627;BME280;67372;49.404;11.034;2023-02-26T11:45:42;98169.25;;;2.43;55.32
75627;BME280;67372;49.404;11.034;2023-02-26T11:48:12;98166.28;;;2.46;54.97
75627;BME280;67372;49.404;11.034;2023-02-26T11:50:43;98170.69;;;2.70;54.15
75627;BME280;67372;49.404;11.034;2023-02-26T11:53:23;98170.97;;;2.84;53.31
75627;BME280;67372;49.404;11.034;2023-02-26T11:55:59;98163.06;;;2.92;52.50
75627;BME280;67372;49.404;11.034;2023-02-26T11:58:28;98171.16;;;2.90;51.49
75627;BME280;67372;49.404;11.034;2023-02-26T12:00:57;98164.28;;;2.65;50.64
75627;BME280;67372;49.404;11.034;2023-02-26T12:03:31;98165.78;;;2.35;52.02
75627;BME280;67372;49.404;11.034;2023-02-26T12:05:59;98169.91;;;2.13;52.38
75627;BME280;67372;49.404;11.034;2023-02-26T12:08:32;98161.34;;;2.19;53.44
75627;BME280;67372;49.404;11.034;2023-02-26T12:11:11;98153.78;;;2.32;53.31
75627;BME280;67372;49.404;11.034;2023-02-26T12:17:33;98152.75;;;2.58;51.01
75627;BME280;67372;49.404;11.034;2023-02-26T12:31:00;98154.69;;;2.88;50.97
75627;BME280;67372;49.404;11.034;2023-02-26T12:34:10;98149.25;;;2.90;50.50
75627;BME280;67372;49.404;11.034;2023-02-26T12:37:47;98164.88;;;2.91;49.86
75627;BME280;67372;49.404;11.034;2023-02-26T12:40:14;98164.38;;;2.96;49.79
75627;BME280;67372;49.404;11.034;2023-02-26T12:43:18;98159.41;;;3.09;48.90
75627;BME280;67372;49.404;11.034;2023-02-26T12:49:26;98166.50;;;3.00;49.40
75627;BME280;67372;49.404;11.034;2023-02-26T12:55:04;98170.97;;;3.39;50.28
75627;BME280;67372;49.404;11.034;2023-02-26T12:57:53;98166.19;;;3.43;49.09
75627;BME280;67372;49.404;11.034;2023-02-26T13:00:36;98165.53;;;3.41;48.67
75627;BME280;67372;49.404;11.034;2023-02-26T13:03:20;98170.72;;;3.18;47.68
75627;BME280;67372;49.404;11.034;2023-02-26T13:14:27;98184.81;;;2.94;50.27
75627;BME280;67372;49.404;11.034;2023-02-26T13:17:26;98186.78;;;2.84;49.57
75627;BME280;67372;49.404;11.034;2023-02-26T13:19:57;98183.72;;;2.39;49.81
75627;BME280;67372;49.404;11.034;2023-02-26T13:22:37;98180.09;;;2.40;49.73
75627;BME280;67372;49.404;11.034;2023-02-26T13:25:35;98188.16;;;2.31;49.65
75627;BME280;67372;49.404;11.034;2023-02-26T13:28:03;98189.00;;;2.39;49.32
75627;BME280;67372;49.404;11.034;2023-02-26T13:30:35;98188.97;;;2.56;49.56
75627;BME280;67372;49.404;11.034;2023-02-26T13:33:09;98193.91;;;2.67;48.86
75627;BME280;67372;49.404;11.034;2023-02-26T13:35:41;98179.91;;;2.50;48.57
75627;BME280;67372;49.404;11.034;2023-02-26T13:38:39;98185.53;;;2.23;48.73
75627;BME280;67372;49.404;11.034;2023-02-26T13:41:26;98179.75;;;2.27;49.25
75627;BME280;67372;49.404;11.034;2023-02-26T13:44:09;98202.63;;;2.35;49.61
75627;BME280;67372;49.404;11.034;2023-02-26T13:49:57;98190.78;;;2.47;48.87
75627;BME280;67372;49.404;11.034;2023-02-26T13:52:30;98198.84;;;2.45;48.96
75627;BME280;67372;49.404;11.034;2023-02-26T13:54:57;98197.84;;;2.30;49.34
75627;BME280;67372;49.404;11.034;2023-02-26T13:57:36;98197.38;;;2.19;48.94
75627;BME280;67372;49.404;11.034;2023-02-26T14:02:57;98211.81;;;2.06;49.93
75627;BME280;67372;49.404;11.034;2023-02-26T14:10:55;98209.88;;;2.49;48.76
75627;BME280;67372;49.404;11.034;2023-02-26T14:13:31;98213.50;;;2.48;48.94
75627;BME280;67372;49.404;11.034;2023-02-26T14:16:01;98203.63;;;2.42;48.25
75627;BME280;67372;49.404;11.034;2023-02-26T14:23:51;98206.91;;;2.44;48.58
75627;BME280;67372;49.404;11.034;2023-02-26T14:26:22;98223.38;;;2.46;48.55
75627;BME280;67372;49.404;11.034;2023-02-26T14:34:22;98219.09;;;2.37;48.24
75627;BME280;67372;49.404;11.034;2023-02-26T14:36:56;98225.00;;;2.39;48.94
75627;BME280;67372;49.404;11.034;2023-02-26T14:39:33;98239.16;;;2.38;48.88
75627;BME280;67372;49.404;11.034;2023-02-26T14:42:04;98233.06;;;2.37;48.97
75627;BME280;67372;49.404;11.034;2023-02-26T14:44:43;98227.00;;;2.37;48.53
75627;BME280;67372;49.404;11.034;2023-02-26T14:47:14;98236.00;;;2.34;48.10